CheckWX is a tool to help pilots better visualize weather data.  It is not intended as a substitute for an official pre-flight weather briefing.

06:49:29 UTC

SPHY TAF
Andahuaylas Airport
Andahuaylas, Peru
SPHY 161700Z 1618/1718 33010KT 7000 SCT012 OVC040 TX14/1619Z TN02/1711Z BECMG 1623/1701 00000KT

Jun-16@
18:00 UTC

Jun-16 @ 18:00 UTC

Jun-16@
23:00 UTC

Jun-16 @ 23:00 UTC

SPHY 161700Z 1618/1718 33010KT 7000 SCT012 OVC040 TX14/1619Z TN02/1711Z

Expired

Wind
  • 330° at 10 KTS
Cloud Levels
  • Scattered at 1,200' AGL
  • Overcast at 4,000' AGL

Jun-16@
23:00 UTC

Jun-16 @ 23:00 UTC

Jun-17@
18:00 UTC

Jun-17 @ 18:00 UTC

BECMG 1623/1701 00000KT

Becoming

Becoming Conditions expected by Mon, Jun 17, 2019 @ 01:00 UTC

Cloud Levels
  • Scattered at 1,200' AGL
  • Overcast at 4,000' AGL